createdAt,value
2018-12-01T00:00:51.952Z,55.33
2018-12-01T00:15:51.344Z,52.35
2018-12-01T00:30:56.292Z,63.05
2018-12-01T00:45:53.335Z,60.45
2018-12-01T01:00:52.068Z,58.25
2018-12-01T01:15:51.459Z,49.90
2018-12-01T01:30:51.419Z,62.70
2018-12-01T01:45:50.926Z,82.35
2018-12-01T02:00:52.784Z,86.05
2018-12-01T02:15:51.697Z,83.85
2018-12-01T02:30:51.562Z,81.97
2018-12-01T03:00:50.839Z,93.72
2018-12-01T03:15:50.908Z,99.92
2018-12-01T03:30:50.685Z,97.27
2018-12-01T03:45:51.154Z,98.90
2018-12-01T04:00:54.065Z,96.90
2018-12-01T04:15:51.578Z,95.05
2018-12-01T04:30:53.872Z,96.55
2018-12-01T04:45:51.340Z,93.60
2018-12-01T05:00:52.256Z,87.17
2018-12-01T05:15:56.666Z,84.28
2018-12-01T05:30:53.158Z,101.82
2018-12-01T05:45:51.482Z,112.70
2018-12-01T06:00:51.258Z,88.90
2018-12-01T06:15:51.160Z,86.75
2018-12-01T06:30:51.122Z,93.90
2018-12-01T06:45:53.453Z,101.07
2018-12-01T07:00:53.399Z,108.25
2018-12-01T07:15:51.319Z,94.60
2018-12-01T07:30:51.301Z,95.40
2018-12-01T07:45:50.636Z,108.30
2018-12-01T08:00:51.507Z,119.10
2018-12-01T08:15:52.244Z,124.92
2018-12-01T11:30:50.716Z,59.45
2018-12-01T11:45:51.513Z,65.22
2018-12-01T12:00:51.394Z,76.77
2018-12-01T12:15:51.371Z,65.42
2018-12-01T12:30:51.396Z,58.73
2018-12-01T12:45:52.797Z,54.18
2018-12-01T13:00:51.678Z,58.20
2018-12-01T13:15:51.551Z,56.13
2018-12-01T13:30:52.781Z,52.40
2018-12-01T13:45:50.913Z,45.98
2018-12-01T14:00:52.784Z,50.28
2018-12-01T14:15:50.603Z,55.38
2018-12-01T14:30:51.548Z,62.35
2018-12-01T14:45:51.082Z,72.60
2018-12-01T15:00:50.898Z,66.92
2018-12-01T15:15:51.022Z,63.90
2018-12-01T15:30:51.735Z,84.25
2018-12-01T15:45:51.707Z,121.77
2018-12-01T16:00:50.625Z,163.35
2018-12-01T16:15:57.556Z,217.05
2018-12-01T16:30:51.101Z,201.60
2018-12-01T16:45:52.076Z,166.57
2018-12-01T17:00:51.363Z,150.15
2018-12-01T17:15:53.569Z,151.10
2018-12-01T17:30:51.534Z,147.37
2018-12-01T17:45:51.107Z,147.37
2018-12-01T18:00:53.491Z,142.18
2018-12-01T18:15:53.479Z,114.35
2018-12-01T18:30:52.334Z,118.20
2018-12-01T18:45:52.366Z,109.20
2018-12-01T19:00:53.012Z,105.47
2018-12-01T19:15:51.106Z,111.15
2018-12-01T19:30:51.517Z,116.00
2018-12-01T19:45:50.998Z,123.35
2018-12-01T20:00:55.210Z,124.15
2018-12-01T20:15:55.094Z,134.12
2018-12-01T20:30:52.765Z,134.65
2018-12-01T20:45:51.186Z,147.75
2018-12-01T21:00:50.596Z,180.05
2018-12-01T21:15:51.578Z,208.43
2018-12-01T21:30:51.549Z,176.97
2018-12-01T21:45:51.255Z,142.13
2018-12-01T22:00:54.329Z,150.20
2018-12-01T22:15:51.239Z,163.95
2018-12-01T22:30:53.677Z,144.45
2018-12-01T22:45:51.579Z,190.32
2018-12-01T23:00:59.419Z,225.43
2018-12-01T23:15:51.346Z,217.40
2018-12-01T23:30:53.046Z,165.05
2018-12-01T23:45:52.586Z,164.20
